createdAt,value
2018-09-22T00:01:11.042Z,1.90
2018-09-22T00:03:39.760Z,2.00
2018-09-22T00:06:08.422Z,1.57
2018-09-22T00:08:37.024Z,1.90
2018-09-22T00:11:05.772Z,1.60
2018-09-22T00:13:34.348Z,1.50
2018-09-22T00:16:02.976Z,1.93
2018-09-22T00:18:31.574Z,1.67
2018-09-22T00:21:00.228Z,1.67
2018-09-22T00:23:28.895Z,1.50
2018-09-22T00:25:57.599Z,2.13
2018-09-22T00:28:26.233Z,2.00
2018-09-22T00:30:54.848Z,1.40
2018-09-22T00:33:24.461Z,1.87
2018-09-22T00:35:53.173Z,1.93
2018-09-22T00:38:21.800Z,1.67
2018-09-22T00:40:50.452Z,1.50
2018-09-22T00:43:19.123Z,1.50
2018-09-22T00:45:47.817Z,1.47
2018-09-22T00:48:16.455Z,2.00
2018-09-22T00:50:45.051Z,1.70
2018-09-22T00:53:13.685Z,1.50
2018-09-22T00:55:42.305Z,1.90
2018-09-22T00:58:10.890Z,1.97
2018-09-22T01:00:39.588Z,1.77
2018-09-22T01:03:08.207Z,2.10
2018-09-22T01:05:36.769Z,2.33
2018-09-22T01:08:05.390Z,2.33
2018-09-22T01:10:34.113Z,3.03
2018-09-22T01:13:02.867Z,2.30
2018-09-22T01:15:31.635Z,2.90
2018-09-22T01:18:00.247Z,2.63
2018-09-22T01:20:28.877Z,2.40
2018-09-22T01:22:57.485Z,2.47
2018-09-22T01:25:26.205Z,2.70
2018-09-22T01:27:54.873Z,3.00
2018-09-22T01:30:23.571Z,2.43
2018-09-22T01:32:52.256Z,2.53
2018-09-22T01:35:20.957Z,2.80
2018-09-22T01:37:49.564Z,2.60
2018-09-22T01:40:18.270Z,3.00
2018-09-22T01:42:46.963Z,2.60
2018-09-22T01:45:15.680Z,2.23
2018-09-22T01:47:44.298Z,2.60
2018-09-22T01:50:12.936Z,2.90
2018-09-22T01:52:41.543Z,2.43
2018-09-22T01:55:10.239Z,2.60
2018-09-22T01:57:38.936Z,2.87
2018-09-22T02:00:07.611Z,2.97
2018-09-22T02:02:36.263Z,3.00
2018-09-22T02:05:04.930Z,2.90
2018-09-22T02:07:33.541Z,2.80
2018-09-22T02:10:02.133Z,3.10
2018-09-22T02:12:30.769Z,2.93
2018-09-22T02:14:59.396Z,3.10
2018-09-22T02:17:27.968Z,2.87
2018-09-22T02:19:56.647Z,2.90
2018-09-22T02:22:25.362Z,2.73
2018-09-22T02:24:54.058Z,2.70
2018-09-22T02:27:22.712Z,2.70
2018-09-22T02:29:51.382Z,3.50
2018-09-22T02:32:19.990Z,2.70
2018-09-22T02:34:48.712Z,3.10
2018-09-22T02:37:18.907Z,3.00
2018-09-22T02:39:48.117Z,3.17
2018-09-22T02:42:16.797Z,3.17
2018-09-22T02:44:45.462Z,2.80
2018-09-22T02:47:14.150Z,3.17
2018-09-22T02:49:42.817Z,2.80
2018-09-22T02:52:11.505Z,3.20
2018-09-22T02:54:40.123Z,2.73
2018-09-22T02:57:08.711Z,3.07
2018-09-22T02:59:37.341Z,3.20
2018-09-22T03:02:06.061Z,2.93
2018-09-22T03:04:34.712Z,3.07
2018-09-22T03:07:03.406Z,3.00
2018-09-22T03:09:32.068Z,2.90
2018-09-22T03:12:00.783Z,3.67
2018-09-22T03:14:29.464Z,2.60
2018-09-22T03:16:58.117Z,3.07
2018-09-22T03:19:26.800Z,2.83
2018-09-22T03:21:55.516Z,2.47
2018-09-22T03:24:24.151Z,3.03
2018-09-22T03:26:52.791Z,2.90
2018-09-22T03:29:21.446Z,2.73
2018-09-22T03:31:50.041Z,2.60
2018-09-22T03:34:18.677Z,2.97
2018-09-22T03:36:47.375Z,2.70
2018-09-22T03:39:16.009Z,3.00
2018-09-22T03:41:44.749Z,2.97
2018-09-22T03:44:13.380Z,2.93
2018-09-22T03:46:41.986Z,2.80
2018-09-22T03:49:10.687Z,3.10
2018-09-22T03:51:39.362Z,2.87
2018-09-22T03:54:07.970Z,2.50
2018-09-22T03:56:36.694Z,2.80
2018-09-22T03:59:05.454Z,3.00
2018-09-22T04:01:34.088Z,2.63
2018-09-22T04:04:02.727Z,2.97
2018-09-22T04:06:31.324Z,2.90
2018-09-22T04:08:59.973Z,2.50
2018-09-22T04:11:28.706Z,3.27
2018-09-22T04:13:57.374Z,3.10
2018-09-22T04:16:25.995Z,3.17
2018-09-22T04:18:54.648Z,2.97
2018-09-22T04:21:23.291Z,2.80
2018-09-22T04:23:51.971Z,3.20
2018-09-22T04:26:20.644Z,2.60
2018-09-22T04:28:49.289Z,2.77
2018-09-22T04:31:17.957Z,3.17
2018-09-22T04:33:46.621Z,2.63
2018-09-22T04:36:15.294Z,3.10
2018-09-22T04:38:44.030Z,3.07
2018-09-22T04:41:12.683Z,2.13
2018-09-22T04:43:41.345Z,3.10
2018-09-22T04:46:10.014Z,2.77
2018-09-22T04:48:38.666Z,3.13
2018-09-22T04:51:07.417Z,3.20
2018-09-22T04:53:36.601Z,3.17
2018-09-22T04:56:05.219Z,2.90
2018-09-22T04:58:33.884Z,2.97
2018-09-22T05:01:02.527Z,2.90
2018-09-22T05:03:31.234Z,3.33
2018-09-22T05:06:00.673Z,3.40
2018-09-22T05:08:29.331Z,2.70
2018-09-22T05:10:58.051Z,2.90
2018-09-22T05:13:27.630Z,2.97
2018-09-22T05:15:56.253Z,2.80
2018-09-22T05:18:24.850Z,3.40
2018-09-22T05:20:53.480Z,3.27
2018-09-22T05:23:22.104Z,3.70
2018-09-22T05:25:50.752Z,3.30
2018-09-22T05:28:19.491Z,2.93
2018-09-22T05:30:48.120Z,3.30
2018-09-22T05:33:16.795Z,3.67
2018-09-22T05:35:45.528Z,3.17
2018-09-22T05:38:14.157Z,3.17
2018-09-22T05:40:42.875Z,2.73
2018-09-22T05:43:11.553Z,2.97
2018-09-22T05:45:40.261Z,3.50
2018-09-22T05:48:08.923Z,3.27
2018-09-22T05:50:37.624Z,3.47
2018-09-22T05:53:06.299Z,2.87
2018-09-22T05:55:34.972Z,3.30
2018-09-22T05:58:03.604Z,3.10
2018-09-22T06:00:36.481Z,3.13
2018-09-22T06:03:05.577Z,3.10
2018-09-22T06:05:34.188Z,3.53
2018-09-22T06:08:03.081Z,3.47
2018-09-22T06:10:31.778Z,3.43
2018-09-22T06:13:00.380Z,2.80
2018-09-22T06:15:28.998Z,3.30
2018-09-22T06:17:57.823Z,3.60
2018-09-22T06:20:26.463Z,3.17
2018-09-22T06:22:55.142Z,3.40
2018-09-22T06:25:23.785Z,3.37
2018-09-22T06:27:52.471Z,2.90
2018-09-22T06:30:21.131Z,3.37
2018-09-22T06:32:49.771Z,2.93
2018-09-22T06:35:18.421Z,2.93
2018-09-22T06:37:47.059Z,3.70
2018-09-22T06:40:15.777Z,3.63
2018-09-22T06:42:44.499Z,2.87
2018-09-22T06:45:13.133Z,2.80
2018-09-22T06:47:41.790Z,2.77
2018-09-22T06:50:10.408Z,3.13
2018-09-22T06:52:39.032Z,3.30
2018-09-22T06:55:07.843Z,3.50
2018-09-22T06:57:36.486Z,2.93
2018-09-22T07:00:05.243Z,2.90
2018-09-22T07:02:33.858Z,3.27
2018-09-22T07:05:02.421Z,3.10
2018-09-22T07:07:31.055Z,3.17
2018-09-22T07:09:59.733Z,3.60
2018-09-22T07:12:28.360Z,3.27
2018-09-22T07:14:56.959Z,3.10
2018-09-22T07:17:27.849Z,3.43
2018-09-22T07:19:56.570Z,3.10
2018-09-22T07:22:30.545Z,3.20
2018-09-22T07:24:59.181Z,3.00
2018-09-22T07:27:27.902Z,3.13
2018-09-22T07:29:56.541Z,3.20
2018-09-22T07:32:25.122Z,3.70
2018-09-22T07:34:53.771Z,3.00
2018-09-22T07:37:22.592Z,2.97
2018-09-22T07:39:51.202Z,2.90
2018-09-22T07:42:19.902Z,3.70
2018-09-22T07:44:48.682Z,3.43
2018-09-22T07:47:17.431Z,3.33
2018-09-22T07:49:46.081Z,3.87
2018-09-22T07:52:14.812Z,3.37
2018-09-22T07:54:43.496Z,3.43
2018-09-22T07:57:12.209Z,3.80
2018-09-22T07:59:40.940Z,3.20
2018-09-22T08:02:09.693Z,4.30
2018-09-22T08:04:38.391Z,3.30
2018-09-22T08:07:07.280Z,3.20
2018-09-22T08:09:35.959Z,3.30
2018-09-22T08:12:05.392Z,3.20
2018-09-22T08:14:34.140Z,3.07
2018-09-22T08:17:04.058Z,3.43
2018-09-22T08:19:32.858Z,3.43
2018-09-22T08:22:01.625Z,2.93
2018-09-22T08:24:30.232Z,2.70
2018-09-22T08:26:59.542Z,2.97
2018-09-22T08:29:28.204Z,2.97
2018-09-22T08:31:56.906Z,3.17
2018-09-22T08:34:25.552Z,3.23
2018-09-22T08:36:54.647Z,3.20
2018-09-22T08:39:23.735Z,3.10
2018-09-22T08:41:52.500Z,3.67
2018-09-22T08:44:21.139Z,3.13
2018-09-22T08:46:49.865Z,3.33
2018-09-22T08:49:18.609Z,3.70
2018-09-22T08:51:47.291Z,3.17
2018-09-22T08:54:16.028Z,3.30
2018-09-22T08:56:44.744Z,3.37
2018-09-22T08:59:13.478Z,3.60
2018-09-22T09:01:42.229Z,3.47
2018-09-22T09:04:11.647Z,3.53
2018-09-22T09:06:40.402Z,3.00
2018-09-22T09:09:09.868Z,3.37
2018-09-22T09:11:38.697Z,3.60
2018-09-22T09:14:08.092Z,3.40
2018-09-22T09:16:36.777Z,3.23
2018-09-22T09:19:05.486Z,3.23
2018-09-22T09:21:34.214Z,3.83
2018-09-22T09:24:03.130Z,3.30
2018-09-22T09:26:31.942Z,3.60
2018-09-22T09:29:00.681Z,3.23
2018-09-22T09:31:29.481Z,3.67
2018-09-22T09:33:58.186Z,3.07
2018-09-22T09:36:26.886Z,3.53
2018-09-22T09:38:59.321Z,3.20
2018-09-22T09:41:28.058Z,3.87
2018-09-22T09:43:56.805Z,3.20
2018-09-22T09:46:25.812Z,4.10
2018-09-22T09:48:54.487Z,3.00
2018-09-22T09:51:23.169Z,3.33
2018-09-22T09:53:51.942Z,2.60
2018-09-22T09:56:20.797Z,2.70
2018-09-22T09:58:49.482Z,3.10
2018-09-22T10:01:18.242Z,2.70
2018-09-22T10:03:47.073Z,2.90
2018-09-22T10:06:15.734Z,3.17
2018-09-22T10:08:44.342Z,2.70
2018-09-22T10:11:12.941Z,3.00
2018-09-22T10:13:41.690Z,2.60
2018-09-22T10:16:10.418Z,3.07
2018-09-22T10:18:39.105Z,2.87
2018-09-22T10:21:07.863Z,2.53
2018-09-22T10:23:36.739Z,2.67
2018-09-22T10:26:05.423Z,3.20
2018-09-22T10:28:34.304Z,2.93
2018-09-22T10:31:02.978Z,2.93
2018-09-22T10:33:31.679Z,2.90
2018-09-22T10:36:01.692Z,2.80
2018-09-22T10:38:30.826Z,2.70
2018-09-22T10:40:59.586Z,2.50
2018-09-22T10:43:28.238Z,2.50
2018-09-22T10:45:57.516Z,2.57
2018-09-22T10:48:26.211Z,2.73
2018-09-22T10:50:54.870Z,2.27
2018-09-22T10:53:23.592Z,2.50
2018-09-22T10:55:52.475Z,2.20
2018-09-22T10:58:21.269Z,2.67
2018-09-22T11:00:50.309Z,2.10
2018-09-22T11:03:19.150Z,2.30
2018-09-22T11:05:47.786Z,1.93
2018-09-22T11:08:17.257Z,2.53
2018-09-22T11:10:45.985Z,2.00
2018-09-22T11:13:14.761Z,1.97
2018-09-22T11:15:43.436Z,1.90
2018-09-22T11:18:12.166Z,2.10
2018-09-22T11:20:40.888Z,2.23
2018-09-22T11:23:10.480Z,2.37
2018-09-22T11:25:39.134Z,2.30
2018-09-22T11:28:07.878Z,1.80
2018-09-22T11:30:38.945Z,2.20
2018-09-22T11:33:07.923Z,2.07
2018-09-22T11:35:36.582Z,2.20
2018-09-22T11:38:05.715Z,1.93
2018-09-22T11:40:34.426Z,1.87
2018-09-22T11:43:03.249Z,2.07
2018-09-22T11:45:32.002Z,2.10
2018-09-22T11:48:00.619Z,2.03
2018-09-22T11:50:29.515Z,2.40
2018-09-22T11:52:58.325Z,2.07
2018-09-22T11:55:27.033Z,2.30
2018-09-22T11:57:55.772Z,2.13
2018-09-22T12:00:24.434Z,2.17
2018-09-22T12:02:53.085Z,2.10
2018-09-22T12:05:21.898Z,2.30
2018-09-22T12:07:50.550Z,1.80
2018-09-22T12:10:19.376Z,1.83
2018-09-22T12:12:48.157Z,1.80
2018-09-22T12:15:16.952Z,2.03
2018-09-22T12:17:45.733Z,2.00
2018-09-22T12:20:14.929Z,1.77
2018-09-22T12:22:43.709Z,1.80
2018-09-22T12:25:12.618Z,2.03
2018-09-22T12:27:41.911Z,2.00
2018-09-22T12:30:10.691Z,2.23
2018-09-22T12:32:39.399Z,1.83
2018-09-22T12:35:08.150Z,1.90
2018-09-22T12:37:37.020Z,2.10
2018-09-22T12:40:05.771Z,1.80
2018-09-22T12:42:34.484Z,2.13
2018-09-22T12:45:03.202Z,2.27
2018-09-22T12:47:31.963Z,1.93
2018-09-22T12:50:00.961Z,1.90
2018-09-22T12:52:29.646Z,2.50
2018-09-22T12:54:58.386Z,1.90
2018-09-22T12:57:27.166Z,1.90
2018-09-22T12:59:55.733Z,2.17
2018-09-22T13:02:24.376Z,1.90
2018-09-22T13:04:52.998Z,2.40
2018-09-22T13:07:21.724Z,2.17
2018-09-22T13:09:50.461Z,2.03
2018-09-22T13:12:19.135Z,1.97
2018-09-22T13:14:47.835Z,2.50
2018-09-22T13:17:16.500Z,2.20
2018-09-22T13:19:45.243Z,2.30
2018-09-22T13:22:13.899Z,2.27
2018-09-22T13:24:42.496Z,2.30
2018-09-22T13:27:11.165Z,2.50
2018-09-22T13:29:39.961Z,1.50
2018-09-22T13:32:08.743Z,1.80
2018-09-22T13:34:37.492Z,2.17
2018-09-22T13:37:06.900Z,2.07
2018-09-22T13:39:35.616Z,2.43
2018-09-22T13:42:04.512Z,2.23
2018-09-22T13:44:33.218Z,2.13
2018-09-22T13:47:02.044Z,2.30
2018-09-22T13:49:30.821Z,2.33
2018-09-22T13:51:59.559Z,2.40
2018-09-22T13:54:28.291Z,2.33
2018-09-22T13:56:56.951Z,2.50
2018-09-22T13:59:25.691Z,2.60
2018-09-22T14:01:54.447Z,2.30
2018-09-22T14:04:23.155Z,2.60
2018-09-22T14:06:51.861Z,2.50
2018-09-22T14:09:20.694Z,2.50
2018-09-22T14:11:49.394Z,2.53
2018-09-22T14:14:18.172Z,2.60
2018-09-22T14:16:47.198Z,2.90
2018-09-22T14:19:15.915Z,3.20
2018-09-22T14:21:44.550Z,2.83
2018-09-22T14:24:14.004Z,3.20
2018-09-22T14:26:42.728Z,2.93
2018-09-22T14:29:11.520Z,3.13
2018-09-22T14:31:40.356Z,3.47
2018-09-22T14:34:09.118Z,3.23
2018-09-22T14:36:37.849Z,2.90
2018-09-22T14:39:07.074Z,3.10
2018-09-22T14:41:35.801Z,3.13
2018-09-22T14:44:04.525Z,3.20
2018-09-22T14:46:33.275Z,3.57
2018-09-22T14:49:02.664Z,4.30
2018-09-22T14:51:31.357Z,3.97
2018-09-22T14:54:00.032Z,3.50
2018-09-22T14:56:28.694Z,3.37
2018-09-22T14:58:57.410Z,3.33
2018-09-22T15:01:26.114Z,3.00
2018-09-22T15:03:54.794Z,3.30
2018-09-22T15:06:23.504Z,2.97
2018-09-22T15:08:52.180Z,2.97
2018-09-22T15:11:20.863Z,2.80
2018-09-22T15:13:49.615Z,2.93
2018-09-22T15:16:18.303Z,3.17
2018-09-22T15:18:47.072Z,3.10
2018-09-22T15:21:15.797Z,3.10
2018-09-22T15:23:44.512Z,3.30
2018-09-22T15:26:13.269Z,3.23
2018-09-22T15:28:42.302Z,3.43
2018-09-22T15:31:11.173Z,2.97
2018-09-22T15:33:39.932Z,2.90
2018-09-22T15:36:08.714Z,2.90
2018-09-22T15:38:37.837Z,2.80
2018-09-22T15:41:06.677Z,3.00
2018-09-22T15:43:36.070Z,2.60
2018-09-22T15:46:04.924Z,3.00
2018-09-22T15:48:33.669Z,3.30
2018-09-22T15:51:02.396Z,2.93
2018-09-22T15:53:31.129Z,3.20
2018-09-22T15:56:00.253Z,3.00
2018-09-22T15:58:29.420Z,3.10
2018-09-22T16:00:58.220Z,3.50
2018-09-22T16:03:26.901Z,3.40
2018-09-22T16:05:55.676Z,2.80
2018-09-22T16:08:24.445Z,3.10
2018-09-22T16:10:53.149Z,3.50
2018-09-22T16:13:21.807Z,4.27
2018-09-22T16:15:50.629Z,3.40
2018-09-22T16:18:19.487Z,4.40
2018-09-22T16:20:48.121Z,4.73
2018-09-22T16:23:16.814Z,4.13
2018-09-22T16:25:45.626Z,6.03
2018-09-22T16:28:14.452Z,3.77
2018-09-22T16:30:43.691Z,4.33
2018-09-22T16:33:12.986Z,4.30
2018-09-22T16:35:41.700Z,4.93
2018-09-22T16:38:10.484Z,3.37
2018-09-22T16:40:39.186Z,3.87
2018-09-22T16:43:07.912Z,3.70
2018-09-22T16:45:36.595Z,3.50
2018-09-22T16:48:05.316Z,4.00
2018-09-22T16:50:34.167Z,3.70
2018-09-22T16:53:03.721Z,3.80
2018-09-22T16:55:32.441Z,3.63
2018-09-22T16:58:01.163Z,3.80
2018-09-22T17:00:29.852Z,4.07
2018-09-22T17:02:58.787Z,4.00
2018-09-22T17:05:27.575Z,4.90
2018-09-22T17:07:56.319Z,6.33
2018-09-22T17:10:25.088Z,4.00
2018-09-22T17:12:53.820Z,4.10
2018-09-22T17:15:22.727Z,4.60
2018-09-22T17:17:51.597Z,3.80
2018-09-22T17:20:21.194Z,4.60
2018-09-22T17:22:50.026Z,4.53
2018-09-22T17:25:18.740Z,3.30
2018-09-22T17:27:47.447Z,3.40
2018-09-22T17:30:16.190Z,3.53
2018-09-22T17:32:44.817Z,3.30
2018-09-22T17:35:13.550Z,4.20
2018-09-22T17:37:43.879Z,4.10
2018-09-22T17:40:12.762Z,4.17
2018-09-22T17:42:41.503Z,3.60
2018-09-22T17:45:10.339Z,3.70
2018-09-22T17:47:39.080Z,4.30
2018-09-22T17:50:07.911Z,3.30
2018-09-22T17:52:36.645Z,3.80
2018-09-22T17:55:05.648Z,4.17
2018-09-22T17:57:34.362Z,4.03
2018-09-22T18:00:03.099Z,3.50
2018-09-22T18:02:31.804Z,4.47
2018-09-22T18:05:00.571Z,4.30
2018-09-22T18:07:29.239Z,4.37
2018-09-22T18:09:57.940Z,5.50
2018-09-22T18:12:26.573Z,4.90
2018-09-22T18:14:55.182Z,4.50
2018-09-22T18:17:23.811Z,4.27
2018-09-22T18:19:52.493Z,4.07
2018-09-22T18:22:21.077Z,4.07
2018-09-22T18:24:49.715Z,4.33
2018-09-22T18:27:18.411Z,4.00
2018-09-22T18:29:47.383Z,4.07
2018-09-22T18:32:16.009Z,4.30
2018-09-22T18:34:44.640Z,4.40
2018-09-22T18:37:13.241Z,5.33
2018-09-22T18:39:41.902Z,5.67
2018-09-22T18:42:10.663Z,5.17
2018-09-22T18:44:39.933Z,5.20
2018-09-22T18:47:08.750Z,5.23
2018-09-22T18:49:37.328Z,5.60
2018-09-22T18:52:06.084Z,6.63
2018-09-22T18:54:34.736Z,6.50
2018-09-22T18:57:03.394Z,6.23
2018-09-22T18:59:32.030Z,6.90
2018-09-22T19:02:00.643Z,7.00
2018-09-22T19:04:29.226Z,7.33
2018-09-22T19:06:57.895Z,7.17
2018-09-22T19:09:26.565Z,6.93
2018-09-22T19:11:55.190Z,7.90
2018-09-22T19:14:32.287Z,7.43
2018-09-22T19:17:08.170Z,6.97
2018-09-22T19:19:43.429Z,7.63
2018-09-22T19:22:15.156Z,7.80
2018-09-22T19:24:52.379Z,7.80
2018-09-22T19:27:32.432Z,8.07
2018-09-22T19:30:18.817Z,7.33
2018-09-22T19:32:58.444Z,7.60
2018-09-22T19:35:33.290Z,7.80
2018-09-22T19:38:07.315Z,8.10
2018-09-22T19:40:41.017Z,8.03
2018-09-22T19:43:17.268Z,8.20
2018-09-22T19:45:49.300Z,8.27
2018-09-22T19:48:23.746Z,8.23
2018-09-22T19:50:57.422Z,8.53
2018-09-22T19:53:26.133Z,8.77
2018-09-22T19:55:54.759Z,8.47
2018-09-22T19:58:23.445Z,8.93
2018-09-22T20:00:52.109Z,8.67
2018-09-22T20:03:20.757Z,8.50
2018-09-22T20:05:49.445Z,8.43
2018-09-22T20:08:18.196Z,8.37
2018-09-22T20:10:46.962Z,9.07
2018-09-22T20:13:15.622Z,8.47
2018-09-22T20:15:44.356Z,8.27
2018-09-22T20:18:13.033Z,8.27
2018-09-22T20:20:41.742Z,9.07
2018-09-22T20:23:10.336Z,8.53
2018-09-22T20:25:39.146Z,8.97
2018-09-22T20:28:07.961Z,8.77
2018-09-22T20:30:36.748Z,9.13
2018-09-22T20:33:05.477Z,8.60
2018-09-22T20:35:34.191Z,9.27
2018-09-22T20:38:02.872Z,8.30
2018-09-22T20:40:31.514Z,8.53
2018-09-22T20:43:00.203Z,8.00
2018-09-22T20:45:28.821Z,8.37
2018-09-22T20:47:57.477Z,8.90
2018-09-22T20:50:26.153Z,8.27
2018-09-22T20:52:54.841Z,8.23
2018-09-22T20:55:23.549Z,9.13
2018-09-22T20:57:52.276Z,8.40
2018-09-22T21:00:20.964Z,8.27
2018-09-22T21:02:49.615Z,8.53
2018-09-22T21:05:18.310Z,8.10
2018-09-22T21:07:46.956Z,8.47
2018-09-22T21:10:15.644Z,8.27
2018-09-22T21:12:44.342Z,8.13
2018-09-22T21:15:12.947Z,8.00
2018-09-22T21:17:41.606Z,7.87
2018-09-22T21:20:10.317Z,7.17
2018-09-22T21:22:39.040Z,8.13
2018-09-22T21:25:07.769Z,6.80
2018-09-22T21:27:36.398Z,7.20
2018-09-22T21:30:05.273Z,6.93
2018-09-22T21:32:33.983Z,6.87
2018-09-22T21:35:02.612Z,7.50
2018-09-22T21:37:31.317Z,6.80
2018-09-22T21:39:59.985Z,7.07
2018-09-22T21:42:28.669Z,6.43
2018-09-22T21:44:57.311Z,7.10
2018-09-22T21:47:26.025Z,7.10
2018-09-22T21:49:54.650Z,6.33
2018-09-22T21:52:23.311Z,6.70
2018-09-22T21:54:52.976Z,6.73
2018-09-22T21:57:21.632Z,6.60
2018-09-22T21:59:50.246Z,7.17
2018-09-22T22:02:18.936Z,6.93
2018-09-22T22:04:47.547Z,6.60
2018-09-22T22:07:16.152Z,7.10
2018-09-22T22:09:44.778Z,6.47
2018-09-22T22:12:13.412Z,6.13
2018-09-22T22:14:42.010Z,6.90
2018-09-22T22:17:10.689Z,6.33
2018-09-22T22:19:39.370Z,6.73
2018-09-22T22:22:08.165Z,6.10
2018-09-22T22:24:36.795Z,6.53
2018-09-22T22:27:05.558Z,6.33
2018-09-22T22:29:34.260Z,7.00
2018-09-22T22:32:02.837Z,6.90
2018-09-22T22:34:31.569Z,6.37
2018-09-22T22:37:00.147Z,7.17
2018-09-22T22:39:28.766Z,6.30
2018-09-22T22:41:57.406Z,7.63
2018-09-22T22:44:26.080Z,6.93
2018-09-22T22:46:54.649Z,7.20
2018-09-22T22:49:23.293Z,7.30
2018-09-22T22:51:51.905Z,7.20
2018-09-22T22:54:20.583Z,7.30
2018-09-22T22:56:49.225Z,7.23
2018-09-22T22:59:17.904Z,7.73
2018-09-22T23:01:46.520Z,7.77
2018-09-22T23:04:15.224Z,8.03
2018-09-22T23:06:43.879Z,7.67
2018-09-22T23:09:12.483Z,7.90
2018-09-22T23:11:41.123Z,7.83
2018-09-22T23:14:09.814Z,8.27
2018-09-22T23:16:38.502Z,8.20
2018-09-22T23:19:07.147Z,8.33
2018-09-22T23:21:35.769Z,8.37
2018-09-22T23:24:04.530Z,8.23
2018-09-22T23:26:33.071Z,8.20
2018-09-22T23:29:01.659Z,8.53
2018-09-22T23:31:30.942Z,8.40
2018-09-22T23:33:59.531Z,8.90
2018-09-22T23:36:28.166Z,9.13
2018-09-22T23:38:56.739Z,9.37
2018-09-22T23:41:25.451Z,9.07
2018-09-22T23:43:54.141Z,9.30
2018-09-22T23:46:22.830Z,9.10
2018-09-22T23:48:51.453Z,8.43
2018-09-22T23:51:20.075Z,8.47
2018-09-22T23:53:48.836Z,9.17
2018-09-22T23:56:17.502Z,7.87
2018-09-22T23:58:46.177Z,7.73
